Thunder radar more information blitzortung!


Radar de pluja more information rain snow radar


Visita la nostra xarxa de llocs de meteo:

Template documentation
and downloads

And another site



Wind From: 11-12-2017 11:00 Until: 14:59 warning for: Wind Level: Yellow info button

Pagina Historial Weather Underground text

Diari Resum Agost 5, 2017 Unitats:  Tant    Imperial   Mètric
« Previous Dia
SegĂźent Dia »
Diari Setmana Mensual Anual Personalitzada
  Maxima: Minima: Media:
Temperatura: 97.5 °F /  36.4 °C 73.4 °F /  23.0 °C 86.7 °F /  30.4 °C
Punt de rosada: 68.5 °F /  20.3 °C 59.7 °F /  15.4 °C 62.8 °F /  17.1 °C
Humitat: 74 % 31 % 47 %
Wind Speed: 15.4 mph /  24.8 km/h - 4.3 mph /  6.9 km/h
RĂ fegues de vent: 15.4 mph /  24.8 km/h - -
Vent:- - SSW
Pression baro: 30 in /  1014.8 hPa 29.8 in /  1010.7 hPa -
Precipitacions: 0 in /  0.0 mm    
Historical Graphs
 
 
Dades de taula per Agost 5, 2017
Temps Temperatura Punt de rosada Pression baro Vent Wind Speed RĂ fegues de vent Humitat Rainfall Rate (Hourly)
00:00 74.8 °F /  23.8 °C 65.1 °F /  18.4 °C 29.9 in /  1013.8 hPa Calm     72 % 0 in /  0.0 mm
00:02 79.3 °F /  26.3 °C 65.7 °F /  18.7 °C 29.9 in /  1013.8 hPa SW 1.2 mph /  1.9 km/h   63 % 0 in /  0.0 mm
00:07 79.3 °F /  26.3 °C 65.7 °F /  18.7 °C 29.9 in /  1013.8 hPa SW 1.2 mph /  1.9 km/h   63 % 0 in /  0.0 mm
00:10 74.8 °F /  23.8 °C 65.1 °F /  18.4 °C 29.9 in /  1012.8 hPa Calm     72 % 0 in /  0.0 mm
00:12 79.2 °F /  26.2 °C 65.5 °F /  18.6 °C 29.9 in /  1013.8 hPa Calm     63 % 0 in /  0.0 mm
00:20 74.8 °F /  23.8 °C 65.1 °F /  18.4 °C 29.9 in /  1012.8 hPa Calm     72 % 0 in /  0.0 mm
00:30 74.7 °F /  23.7 °C 64.9 °F /  18.3 °C 29.9 in /  1012.8 hPa Calm     72 % 0 in /  0.0 mm
00:40 73.9 °F /  23.3 °C 64.2 °F /  17.9 °C 29.9 in /  1013.8 hPa Calm   2 mph /  3.2 km/h 72 % 0 in /  0.0 mm
00:50 73.8 °F /  23.2 °C 64.6 °F /  18.1 °C 29.9 in /  1013.8 hPa Calm   1 mph /  1.6 km/h 73 % 0 in /  0.0 mm
01:00 73.8 °F /  23.2 °C 64.6 °F /  18.1 °C 29.9 in /  1013.8 hPa Calm     73 % 0 in /  0.0 mm
01:10 73.8 °F /  23.2 °C 64.9 °F /  18.3 °C 29.9 in /  1013.8 hPa Calm     74 % 0 in /  0.0 mm
01:20 73.8 °F /  23.2 °C 64.9 °F /  18.3 °C 29.9 in /  1013.8 hPa Calm     74 % 0 in /  0.0 mm
01:30 73.8 °F /  23.2 °C 64.9 °F /  18.3 °C 29.9 in /  1013.8 hPa Calm     74 % 0 in /  0.0 mm
01:40 73.6 °F /  23.1 °C 64.8 °F /  18.2 °C 29.9 in /  1013.8 hPa Calm     74 % 0 in /  0.0 mm
01:50 73.4 °F /  23.0 °C 64.6 °F /  18.1 °C 29.9 in /  1013.8 hPa Calm     74 % 0 in /  0.0 mm
02:00 73.8 °F /  23.2 °C 64.9 °F /  18.3 °C 29.9 in /  1013.8 hPa Calm     74 % 0 in /  0.0 mm
02:10 73.8 °F /  23.2 °C 64.9 °F /  18.3 °C 29.9 in /  1013.8 hPa Calm     74 % 0 in /  0.0 mm
02:20 73.4 °F /  23.0 °C 64.6 °F /  18.1 °C 29.9 in /  1013.8 hPa Calm     74 % 0 in /  0.0 mm
02:30 73.8 °F /  23.2 °C 64.9 °F /  18.3 °C 29.9 in /  1013.8 hPa WSW 1 mph /  1.6 km/h 1 mph /  1.6 km/h 74 % 0 in /  0.0 mm
02:40 74.7 °F /  23.7 °C 65.5 °F /  18.6 °C 29.9 in /  1013.8 hPa Calm     73 % 0 in /  0.0 mm
02:50 75.6 °F /  24.2 °C 65.8 °F /  18.8 °C 29.9 in /  1013.8 hPa NE 1 mph /  1.6 km/h 2 mph /  3.2 km/h 72 % 0 in /  0.0 mm
03:00 75.7 °F /  24.3 °C 65.7 °F /  18.7 °C 29.9 in /  1013.8 hPa NE 1 mph /  1.6 km/h 2 mph /  3.2 km/h 71 % 0 in /  0.0 mm
03:10 76.6 °F /  24.8 °C 65.7 °F /  18.7 °C 29.9 in /  1013.8 hPa NE 1 mph /  1.6 km/h 2 mph /  3.2 km/h 69 % 0 in /  0.0 mm
03:20 77 °F /  25.0 °C 65.7 °F /  18.7 °C 29.9 in /  1013.8 hPa East 2 mph /  3.2 km/h 3 mph /  4.8 km/h 68 % 0 in /  0.0 mm
03:30 77.7 °F /  25.4 °C 65.8 °F /  18.8 °C 29.9 in /  1013.8 hPa ESE 2 mph /  3.2 km/h 3 mph /  4.8 km/h 67 % 0 in /  0.0 mm
03:40 78.8 °F /  26.0 °C 66.6 °F /  19.2 °C 29.9 in /  1013.8 hPa Calm   2 mph /  3.2 km/h 66 % 0 in /  0.0 mm
03:50 79.5 °F /  26.4 °C 66.7 °F /  19.3 °C 29.9 in /  1013.8 hPa South 1 mph /  1.6 km/h 2 mph /  3.2 km/h 65 % 0 in /  0.0 mm
04:00 80.1 °F /  26.7 °C 66.4 °F /  19.1 °C 29.9 in /  1013.8 hPa South 1 mph /  1.6 km/h 2 mph /  3.2 km/h 63 % 0 in /  0.0 mm
04:10 81.1 °F /  27.3 °C 66.4 °F /  19.1 °C 29.9 in /  1013.8 hPa SE 2 mph /  3.2 km/h 3 mph /  4.8 km/h 61 % 0 in /  0.0 mm
04:20 82 °F /  27.8 °C 67.3 °F /  19.6 °C 29.9 in /  1013.8 hPa East 1 mph /  1.6 km/h 2 mph /  3.2 km/h 61 % 0 in /  0.0 mm
04:30 81.9 °F /  27.7 °C 66 °F /  18.9 °C 29.9 in /  1013.8 hPa East 1 mph /  1.6 km/h 2 mph /  3.2 km/h 59 % 0 in /  0.0 mm
04:40 82.9 °F /  28.3 °C 66.6 °F /  19.2 °C 30 in /  1014.8 hPa East 2 mph /  3.2 km/h 3 mph /  4.8 km/h 58 % 0 in /  0.0 mm
04:50 84.2 °F /  29.0 °C 66.7 °F /  19.3 °C 29.9 in /  1013.8 hPa ENE 1 mph /  1.6 km/h 3 mph /  4.8 km/h 56 % 0 in /  0.0 mm
05:00 85.5 °F /  29.7 °C 66.9 °F /  19.4 °C 29.9 in /  1013.8 hPa NE 1 mph /  1.6 km/h 2 mph /  3.2 km/h 54 % 0 in /  0.0 mm
05:10 86.9 °F /  30.5 °C 67.6 °F /  19.8 °C 29.9 in /  1013.8 hPa Calm   2 mph /  3.2 km/h 53 % 0 in /  0.0 mm
10:17 86.7 °F /  30.4 °C 66.9 °F /  19.4 °C 29.9 in /  1013.8 hPa South 2.3 mph /  3.7 km/h 2.3 mph /  3.7 km/h 52 % 0 in /  0.0 mm
10:22 88.2 °F /  31.2 °C 67.3 °F /  19.6 °C 29.9 in /  1013.8 hPa SSE 3.5 mph /  5.6 km/h 3.5 mph /  5.6 km/h 50 % 0 in /  0.0 mm
10:27 88.2 °F /  31.2 °C 66.6 °F /  19.2 °C 29.9 in /  1013.8 hPa West 2.3 mph /  3.7 km/h 2.3 mph /  3.7 km/h 49 % 0 in /  0.0 mm
10:32 88.3 °F /  31.3 °C 66.7 °F /  19.3 °C 29.9 in /  1013.8 hPa South 2.9 mph /  4.7 km/h 2.9 mph /  4.7 km/h 49 % 0 in /  0.0 mm
10:37 89.4 °F /  31.9 °C 67.1 °F /  19.5 °C 29.9 in /  1013.8 hPa South 3.5 mph /  5.6 km/h 3.5 mph /  5.6 km/h 48 % 0 in /  0.0 mm
10:42 90.9 °F /  32.7 °C 68.5 °F /  20.3 °C 29.9 in /  1013.8 hPa SSW 4.9 mph /  7.9 km/h 4.9 mph /  7.9 km/h 48 % 0 in /  0.0 mm
10:47 90.3 °F /  32.4 °C 66.7 °F /  19.3 °C 29.9 in /  1013.8 hPa SW 5.6 mph /  9.0 km/h 5.6 mph /  9.0 km/h 46 % 0 in /  0.0 mm
10:52 89.4 °F /  31.9 °C 65.8 °F /  18.8 °C 29.9 in /  1013.8 hPa SSW 3.5 mph /  5.6 km/h 3.5 mph /  5.6 km/h 46 % 0 in /  0.0 mm
10:57 89.8 °F /  32.1 °C 65.7 °F /  18.7 °C 29.9 in /  1013.8 hPa SW 2.3 mph /  3.7 km/h 2.3 mph /  3.7 km/h 45 % 0 in /  0.0 mm
11:02 89.2 °F /  31.8 °C 65.1 °F /  18.4 °C 29.9 in /  1013.8 hPa SW 4.6 mph /  7.4 km/h 4.6 mph /  7.4 km/h 45 % 0 in /  0.0 mm
11:07 89.8 °F /  32.1 °C 65.7 °F /  18.7 °C 29.9 in /  1013.8 hPa West 4 mph /  6.4 km/h 4 mph /  6.4 km/h 45 % 0 in /  0.0 mm
11:12 89.6 °F /  32.0 °C 65.5 °F /  18.6 °C 29.9 in /  1013.8 hPa WSW 4.3 mph /  6.9 km/h 4.3 mph /  6.9 km/h 45 % 0 in /  0.0 mm
11:17 90.3 °F /  32.4 °C 66 °F /  18.9 °C 29.9 in /  1013.8 hPa WSW 6.2 mph /  10.0 km/h 6.2 mph /  10.0 km/h 45 % 0 in /  0.0 mm
11:22 90.5 °F /  32.5 °C 65.7 °F /  18.7 °C 29.9 in /  1013.8 hPa SSW 2.3 mph /  3.7 km/h 2.3 mph /  3.7 km/h 44 % 0 in /  0.0 mm
11:27 90.3 °F /  32.4 °C 65.5 °F /  18.6 °C 29.9 in /  1013.8 hPa West 4.6 mph /  7.4 km/h 4.6 mph /  7.4 km/h 44 % 0 in /  0.0 mm
11:32 90.5 °F /  32.5 °C 65.7 °F /  18.7 °C 29.9 in /  1012.8 hPa WSW 3.5 mph /  5.6 km/h 3.5 mph /  5.6 km/h 44 % 0 in /  0.0 mm
11:37 90.9 °F /  32.7 °C 65.3 °F /  18.5 °C 29.9 in /  1012.8 hPa SW 4.6 mph /  7.4 km/h 4.6 mph /  7.4 km/h 43 % 0 in /  0.0 mm
11:42 91.2 °F /  32.9 °C 65.7 °F /  18.7 °C 29.9 in /  1012.8 hPa WSW 9.2 mph /  14.8 km/h 9.2 mph /  14.8 km/h 43 % 0 in /  0.0 mm
11:47 91.4 °F /  33.0 °C 64.4 °F /  18.0 °C 29.9 in /  1013.8 hPa SW 9.2 mph /  14.8 km/h 9.2 mph /  14.8 km/h 41 % 0 in /  0.0 mm
11:52 91.4 °F /  33.0 °C 63.7 °F /  17.6 °C 29.9 in /  1013.8 hPa West 8.1 mph /  13.0 km/h 8.1 mph /  13.0 km/h 40 % 0 in /  0.0 mm
11:57 92.1 °F /  33.4 °C 64.2 °F /  17.9 °C 29.9 in /  1013.8 hPa WSW 8.7 mph /  14.0 km/h 8.7 mph /  14.0 km/h 40 % 0 in /  0.0 mm
12:02 91.9 °F /  33.3 °C 64.2 °F /  17.9 °C 29.9 in /  1012.8 hPa SSE 5.8 mph /  9.3 km/h 5.8 mph /  9.3 km/h 40 % 0 in /  0.0 mm
12:07 92.3 °F /  33.5 °C 64.6 °F /  18.1 °C 29.9 in /  1012.8 hPa WSW 5.8 mph /  9.3 km/h 5.8 mph /  9.3 km/h 40 % 0 in /  0.0 mm
12:12 93 °F /  33.9 °C 65.1 °F /  18.4 °C 29.9 in /  1012.8 hPa SW 5.8 mph /  9.3 km/h 5.8 mph /  9.3 km/h 40 % 0 in /  0.0 mm
12:17 92.8 °F /  33.8 °C 64.2 °F /  17.9 °C 29.9 in /  1013.8 hPa SSW 8.1 mph /  13.0 km/h 8.1 mph /  13.0 km/h 39 % 0 in /  0.0 mm
12:22 93.4 °F /  34.1 °C 64.8 °F /  18.2 °C 29.9 in /  1013.8 hPa WSW 6.2 mph /  10.0 km/h 6.2 mph /  10.0 km/h 39 % 0 in /  0.0 mm
12:27 93.4 °F /  34.1 °C 64 °F /  17.8 °C 29.9 in /  1013.8 hPa SW 5.8 mph /  9.3 km/h 5.8 mph /  9.3 km/h 38 % 0 in /  0.0 mm
12:32 93.4 °F /  34.1 °C 63.1 °F /  17.3 °C 29.9 in /  1013.8 hPa WSW 9.2 mph /  14.8 km/h 9.2 mph /  14.8 km/h 37 % 0 in /  0.0 mm
12:37 93.9 °F /  34.4 °C 63 °F /  17.2 °C 29.9 in /  1013.8 hPa SSW 8.1 mph /  13.0 km/h 8.1 mph /  13.0 km/h 36 % 0 in /  0.0 mm
12:42 94.1 °F /  34.5 °C 63.9 °F /  17.7 °C 29.9 in /  1013.8 hPa SW 4.6 mph /  7.4 km/h 4.6 mph /  7.4 km/h 37 % 0 in /  0.0 mm
12:47 95.5 °F /  35.3 °C 64.2 °F /  17.9 °C 29.9 in /  1013.8 hPa West 4.6 mph /  7.4 km/h 4.6 mph /  7.4 km/h 36 % 0 in /  0.0 mm
12:52 94.8 °F /  34.9 °C 63.7 °F /  17.6 °C 29.9 in /  1013.8 hPa West 4.6 mph /  7.4 km/h 4.6 mph /  7.4 km/h 36 % 0 in /  0.0 mm
12:57 93.9 °F /  34.4 °C 63 °F /  17.2 °C 29.9 in /  1013.8 hPa West 6.9 mph /  11.1 km/h 6.9 mph /  11.1 km/h 36 % 0 in /  0.0 mm
13:02 94.1 °F /  34.5 °C 62.2 °F /  16.8 °C 29.9 in /  1013.8 hPa SW 4.6 mph /  7.4 km/h 4.6 mph /  7.4 km/h 35 % 0 in /  0.0 mm
13:07 95.4 °F /  35.2 °C 62.4 °F /  16.9 °C 29.9 in /  1013.8 hPa South 4.7 mph /  7.6 km/h 4.7 mph /  7.6 km/h 34 % 0 in /  0.0 mm
13:12 95.5 °F /  35.3 °C 62.8 °F /  17.1 °C 29.9 in /  1013.8 hPa SW 8.1 mph /  13.0 km/h 8.1 mph /  13.0 km/h 34 % 0 in /  0.0 mm
13:17 95.2 °F /  35.1 °C 62.4 °F /  16.9 °C 29.9 in /  1013.8 hPa SW 6.9 mph /  11.1 km/h 6.9 mph /  11.1 km/h 34 % 0 in /  0.0 mm
13:22 94.3 °F /  34.6 °C 61.5 °F /  16.4 °C 29.9 in /  1013.8 hPa WSW 12.7 mph /  20.4 km/h 12.7 mph /  20.4 km/h 34 % 0 in /  0.0 mm
13:27 95.2 °F /  35.1 °C 61.5 °F /  16.4 °C 29.9 in /  1013.8 hPa SSW 5.8 mph /  9.3 km/h 5.8 mph /  9.3 km/h 33 % 0 in /  0.0 mm
13:32 95.2 °F /  35.1 °C 61.5 °F /  16.4 °C 29.9 in /  1013.8 hPa SW 6.9 mph /  11.1 km/h 6.9 mph /  11.1 km/h 33 % 0 in /  0.0 mm
13:37 95.4 °F /  35.2 °C 60.8 °F /  16.0 °C 29.9 in /  1013.8 hPa SW 11.5 mph /  18.5 km/h 11.5 mph /  18.5 km/h 32 % 0 in /  0.0 mm
13:42 94.5 °F /  34.7 °C 61 °F /  16.1 °C 29.9 in /  1013.8 hPa SW 10.4 mph /  16.7 km/h 10.4 mph /  16.7 km/h 33 % 0 in /  0.0 mm
13:47 94.8 °F /  34.9 °C 61.2 °F /  16.2 °C 29.9 in /  1013.8 hPa SW 12.7 mph /  20.4 km/h 12.7 mph /  20.4 km/h 33 % 0 in /  0.0 mm
13:52 95 °F /  35.0 °C 60.4 °F /  15.8 °C 29.9 in /  1013.8 hPa South 4.6 mph /  7.4 km/h 5.4 mph /  8.7 km/h 32 % 0 in /  0.0 mm
13:57 96.3 °F /  35.7 °C 61.5 °F /  16.4 °C 29.9 in /  1013.8 hPa SSE 5.8 mph /  9.3 km/h 5.8 mph /  9.3 km/h 32 % 0 in /  0.0 mm
14:02 95.7 °F /  35.4 °C 60.3 °F /  15.7 °C 29.9 in /  1012.8 hPa SW 6.4 mph /  10.3 km/h 6.4 mph /  10.3 km/h 31 % 0 in /  0.0 mm
14:07 95.5 °F /  35.3 °C 61 °F /  16.1 °C 29.9 in /  1012.8 hPa SW 8.1 mph /  13.0 km/h 8.1 mph /  13.0 km/h 32 % 0 in /  0.0 mm
14:12 95.5 °F /  35.3 °C 60.1 °F /  15.6 °C 29.9 in /  1012.8 hPa SSW 5.8 mph /  9.3 km/h 5.8 mph /  9.3 km/h 31 % 0 in /  0.0 mm
14:17 96.1 °F /  35.6 °C 60.6 °F /  15.9 °C 29.9 in /  1012.8 hPa SSE 5.8 mph /  9.3 km/h 5.8 mph /  9.3 km/h 31 % 0 in /  0.0 mm
14:22 96.1 °F /  35.6 °C 60.6 °F /  15.9 °C 29.9 in /  1012.8 hPa WSW 9.2 mph /  14.8 km/h 9.2 mph /  14.8 km/h 31 % 0 in /  0.0 mm
14:27 96.4 °F /  35.8 °C 61 °F /  16.1 °C 29.9 in /  1012.8 hPa SW 5.8 mph /  9.3 km/h 5.8 mph /  9.3 km/h 31 % 0 in /  0.0 mm
14:32 95.9 °F /  35.5 °C 60.4 °F /  15.8 °C 29.9 in /  1012.8 hPa West 10.4 mph /  16.7 km/h 10.4 mph /  16.7 km/h 31 % 0 in /  0.0 mm
14:37 95.4 °F /  35.2 °C 59.9 °F /  15.5 °C 29.9 in /  1012.8 hPa SW 8.1 mph /  13.0 km/h 8.1 mph /  13.0 km/h 31 % 0 in /  0.0 mm
14:42 95.4 °F /  35.2 °C 59.9 °F /  15.5 °C 29.9 in /  1012.8 hPa SSW 10.2 mph /  16.4 km/h 10.2 mph /  16.4 km/h 31 % 0 in /  0.0 mm
14:47 96.3 °F /  35.7 °C 60.6 °F /  15.9 °C 29.9 in /  1012.8 hPa ESE 4.6 mph /  7.4 km/h 4.6 mph /  7.4 km/h 31 % 0 in /  0.0 mm
14:52 96.6 °F /  35.9 °C 61 °F /  16.1 °C 29.9 in /  1012.8 hPa West 15.4 mph /  24.8 km/h 15.4 mph /  24.8 km/h 31 % 0 in /  0.0 mm
14:57 96.1 °F /  35.6 °C 60.6 °F /  15.9 °C 29.9 in /  1012.8 hPa SW 8.1 mph /  13.0 km/h 8.1 mph /  13.0 km/h 31 % 0 in /  0.0 mm
15:02 97 °F /  36.1 °C 61.3 °F /  16.3 °C 29.9 in /  1011.7 hPa SSE 5.8 mph /  9.3 km/h 5.8 mph /  9.3 km/h 31 % 0 in /  0.0 mm
15:07 97.5 °F /  36.4 °C 61.9 °F /  16.6 °C 29.9 in /  1011.7 hPa WSW 7.6 mph /  12.2 km/h 7.6 mph /  12.2 km/h 31 % 0 in /  0.0 mm
15:12 97.3 °F /  36.3 °C 61.5 °F /  16.4 °C 29.9 in /  1011.7 hPa SW 5.8 mph /  9.3 km/h 5.8 mph /  9.3 km/h 31 % 0 in /  0.0 mm
15:17 97.2 °F /  36.2 °C 61.5 °F /  16.4 °C 29.9 in /  1011.7 hPa SSW 12.7 mph /  20.4 km/h 12.7 mph /  20.4 km/h 31 % 0 in /  0.0 mm
15:22 96.3 °F /  35.7 °C 60.6 °F /  15.9 °C 29.9 in /  1011.7 hPa SW 8.1 mph /  13.0 km/h 8.1 mph /  13.0 km/h 31 % 0 in /  0.0 mm
15:27 96.8 °F /  36.0 °C 62.1 °F /  16.7 °C 29.9 in /  1011.7 hPa SW 7.1 mph /  11.4 km/h 7.1 mph /  11.4 km/h 32 % 0 in /  0.0 mm
15:32 96.6 °F /  35.9 °C 61.9 °F /  16.6 °C 29.9 in /  1011.7 hPa SSE 6.9 mph /  11.1 km/h 6.9 mph /  11.1 km/h 32 % 0 in /  0.0 mm
15:37 95.9 °F /  35.5 °C 61.3 °F /  16.3 °C 29.9 in /  1011.7 hPa SW 6.9 mph /  11.1 km/h 6.9 mph /  11.1 km/h 32 % 0 in /  0.0 mm
15:38 95.9 °F /  35.5 °C 61.3 °F /  16.3 °C 29.9 in /  1011.7 hPa ESE 10.4 mph /  16.7 km/h 10.4 mph /  16.7 km/h 32 % 0 in /  0.0 mm
15:43 95.2 °F /  35.1 °C 60.6 °F /  15.9 °C 29.9 in /  1011.7 hPa West 6.9 mph /  11.1 km/h 6.9 mph /  11.1 km/h 32 % 0 in /  0.0 mm
15:48 95.2 °F /  35.1 °C 61.5 °F /  16.4 °C 29.9 in /  1011.7 hPa South 4.6 mph /  7.4 km/h 4.6 mph /  7.4 km/h 33 % 0 in /  0.0 mm
15:53 95.5 °F /  35.3 °C 61.9 °F /  16.6 °C 29.9 in /  1011.7 hPa South 4.6 mph /  7.4 km/h 4.6 mph /  7.4 km/h 33 % 0 in /  0.0 mm
15:58 95.5 °F /  35.3 °C 61.9 °F /  16.6 °C 29.9 in /  1011.7 hPa SE 10.4 mph /  16.7 km/h 10.4 mph /  16.7 km/h 33 % 0 in /  0.0 mm
16:03 95.5 °F /  35.3 °C 61.9 °F /  16.6 °C 29.9 in /  1011.7 hPa SSW 5.8 mph /  9.3 km/h 5.8 mph /  9.3 km/h 33 % 0 in /  0.0 mm
16:08 95 °F /  35.0 °C 61.3 °F /  16.3 °C 29.9 in /  1011.7 hPa SW 10.4 mph /  16.7 km/h 10.4 mph /  16.7 km/h 33 % 0 in /  0.0 mm
16:13 95.5 °F /  35.3 °C 61.9 °F /  16.6 °C 29.9 in /  1011.7 hPa South 8.1 mph /  13.0 km/h 8.1 mph /  13.0 km/h 33 % 0 in /  0.0 mm
16:18 95 °F /  35.0 °C 61.3 °F /  16.3 °C 29.9 in /  1011.7 hPa SW 12.7 mph /  20.4 km/h 12.7 mph /  20.4 km/h 33 % 0 in /  0.0 mm
16:23 94.6 °F /  34.8 °C 61.9 °F /  16.6 °C 29.9 in /  1011.7 hPa SSW 11.5 mph /  18.5 km/h 11.5 mph /  18.5 km/h 34 % 0 in /  0.0 mm
16:28 95 °F /  35.0 °C 61.3 °F /  16.3 °C 29.9 in /  1011.7 hPa SSE 8.1 mph /  13.0 km/h 8.1 mph /  13.0 km/h 33 % 0 in /  0.0 mm
16:33 94.8 °F /  34.9 °C 62.1 °F /  16.7 °C 29.9 in /  1011.7 hPa WSW 10 mph /  16.1 km/h 10 mph /  16.1 km/h 34 % 0 in /  0.0 mm
16:38 94.8 °F /  34.9 °C 62.1 °F /  16.7 °C 29.9 in /  1011.7 hPa South 13.8 mph /  22.2 km/h 13.8 mph /  22.2 km/h 34 % 0 in /  0.0 mm
16:43 95.2 °F /  35.1 °C 62.4 °F /  16.9 °C 29.9 in /  1011.7 hPa SW 11.5 mph /  18.5 km/h 11.5 mph /  18.5 km/h 34 % 0 in /  0.0 mm
16:48 94.8 °F /  34.9 °C 63 °F /  17.2 °C 29.9 in /  1011.7 hPa SW 5.8 mph /  9.3 km/h 5.8 mph /  9.3 km/h 35 % 0 in /  0.0 mm
16:53 94.6 °F /  34.8 °C 62.8 °F /  17.1 °C 29.9 in /  1011.7 hPa SSW 8.1 mph /  13.0 km/h 8.1 mph /  13.0 km/h 35 % 0 in /  0.0 mm
17:03 94.6 °F /  34.8 °C 62.8 °F /  17.1 °C 29.9 in /  1011.7 hPa SSW 4.6 mph /  7.4 km/h 4.6 mph /  7.4 km/h 35 % 0 in /  0.0 mm
17:08 95.2 °F /  35.1 °C 62.4 °F /  16.9 °C 29.9 in /  1011.7 hPa WSW 6 mph /  9.7 km/h 6 mph /  9.7 km/h 34 % 0 in /  0.0 mm
17:13 95.2 °F /  35.1 °C 62.4 °F /  16.9 °C 29.9 in /  1011.7 hPa SW 13.8 mph /  22.2 km/h 13.8 mph /  22.2 km/h 34 % 0 in /  0.0 mm
17:18 94.5 °F /  34.7 °C 62.6 °F /  17.0 °C 29.9 in /  1011.7 hPa SW 7.6 mph /  12.2 km/h 7.6 mph /  12.2 km/h 35 % 0 in /  0.0 mm
17:23 94.5 °F /  34.7 °C 62.6 °F /  17.0 °C 29.9 in /  1011.7 hPa SW 8.1 mph /  13.0 km/h 8.1 mph /  13.0 km/h 35 % 0 in /  0.0 mm
17:28 93.7 °F /  34.3 °C 62.1 °F /  16.7 °C 29.9 in /  1011.7 hPa WSW 10.4 mph /  16.7 km/h 10.4 mph /  16.7 km/h 35 % 0 in /  0.0 mm
17:33 93.9 °F /  34.4 °C 62.1 °F /  16.7 °C 29.9 in /  1011.7 hPa SW 8.1 mph /  13.0 km/h 8.1 mph /  13.0 km/h 35 % 0 in /  0.0 mm
17:38 93.7 °F /  34.3 °C 61.2 °F /  16.2 °C 29.9 in /  1011.7 hPa SW 7.8 mph /  12.6 km/h 7.8 mph /  12.6 km/h 34 % 0 in /  0.0 mm
17:43 94.1 °F /  34.5 °C 62.2 °F /  16.8 °C 29.9 in /  1011.7 hPa SW 6.9 mph /  11.1 km/h 6.9 mph /  11.1 km/h 35 % 0 in /  0.0 mm
17:48 94.5 °F /  34.7 °C 61.9 °F /  16.6 °C 29.9 in /  1011.7 hPa SW 8.1 mph /  13.0 km/h 8.1 mph /  13.0 km/h 34 % 0 in /  0.0 mm
17:53 93.9 °F /  34.4 °C 61.3 °F /  16.3 °C 29.9 in /  1011.7 hPa ESE 9.2 mph /  14.8 km/h 9.2 mph /  14.8 km/h 34 % 0 in /  0.0 mm
17:58 94.5 °F /  34.7 °C 61.9 °F /  16.6 °C 29.9 in /  1011.7 hPa South 5.8 mph /  9.3 km/h 5.8 mph /  9.3 km/h 34 % 0 in /  0.0 mm
18:03 93.6 °F /  34.2 °C 61 °F /  16.1 °C 29.9 in /  1011.7 hPa WSW 8.1 mph /  13.0 km/h 8.1 mph /  13.0 km/h 34 % 0 in /  0.0 mm
18:08 93.9 °F /  34.4 °C 60.4 °F /  15.8 °C 29.9 in /  1011.7 hPa South 7.4 mph /  11.9 km/h 7.4 mph /  11.9 km/h 33 % 0 in /  0.0 mm
18:13 93.2 °F /  34.0 °C 59.7 °F /  15.4 °C 29.9 in /  1011.7 hPa SSW 8.1 mph /  13.0 km/h 8.1 mph /  13.0 km/h 33 % 0 in /  0.0 mm
18:18 93.2 °F /  34.0 °C 59.7 °F /  15.4 °C 29.9 in /  1011.7 hPa SW 7.8 mph /  12.6 km/h 7.8 mph /  12.6 km/h 33 % 0 in /  0.0 mm
18:23 92.7 °F /  33.7 °C 60.3 °F /  15.7 °C 29.9 in /  1011.7 hPa South 10.4 mph /  16.7 km/h 10.4 mph /  16.7 km/h 34 % 0 in /  0.0 mm
18:28 92.8 °F /  33.8 °C 60.3 °F /  15.7 °C 29.9 in /  1011.7 hPa SW 5.8 mph /  9.3 km/h 5.8 mph /  9.3 km/h 34 % 0 in /  0.0 mm
18:33 92.7 °F /  33.7 °C 60.3 °F /  15.7 °C 29.9 in /  1011.7 hPa SSW 5.8 mph /  9.3 km/h 5.8 mph /  9.3 km/h 34 % 0 in /  0.0 mm
18:38 92.5 °F /  33.6 °C 60.1 °F /  15.6 °C 29.9 in /  1011.7 hPa WNW 6.9 mph /  11.1 km/h 6.9 mph /  11.1 km/h 34 % 0 in /  0.0 mm
18:43 92.8 °F /  33.8 °C 60.3 °F /  15.7 °C 29.9 in /  1011.7 hPa SW 9.2 mph /  14.8 km/h 9.2 mph /  14.8 km/h 34 % 0 in /  0.0 mm
18:48 92.3 °F /  33.5 °C 60.6 °F /  15.9 °C 29.8 in /  1010.7 hPa SSW 8.5 mph /  13.7 km/h 8.5 mph /  13.7 km/h 35 % 0 in /  0.0 mm
18:53 91.6 °F /  33.1 °C 60.1 °F /  15.6 °C 29.8 in /  1010.7 hPa SE 5.8 mph /  9.3 km/h 5.8 mph /  9.3 km/h 35 % 0 in /  0.0 mm
18:58 91.8 °F /  33.2 °C 60.3 °F /  15.7 °C 29.8 in /  1010.7 hPa West 8.5 mph /  13.7 km/h 8.5 mph /  13.7 km/h 35 % 0 in /  0.0 mm
19:03 90.9 °F /  32.7 °C 60.3 °F /  15.7 °C 29.9 in /  1011.7 hPa SW 8.1 mph /  13.0 km/h 8.1 mph /  13.0 km/h 36 % 0 in /  0.0 mm
19:08 90.9 °F /  32.7 °C 60.3 °F /  15.7 °C 29.9 in /  1011.7 hPa SW 6.4 mph /  10.3 km/h 6.4 mph /  10.3 km/h 36 % 0 in /  0.0 mm
19:10 80.1 °F /  26.7 °C 61.9 °F /  16.6 °C 29.9 in /  1013.8 hPa NE 1 mph /  1.6 km/h 1 mph /  1.6 km/h 54 % 0 in /  0.0 mm
19:13 90.7 °F /  32.6 °C 60.8 °F /  16.0 °C 29.9 in /  1011.7 hPa SW 6.9 mph /  11.1 km/h 6.9 mph /  11.1 km/h 37 % 0 in /  0.0 mm
19:18 90 °F /  32.2 °C 60.3 °F /  15.7 °C 29.9 in /  1011.7 hPa WSW 10.4 mph /  16.7 km/h 10.4 mph /  16.7 km/h 37 % 0 in /  0.0 mm
19:20 80.1 °F /  26.7 °C 62.4 °F /  16.9 °C 29.9 in /  1013.8 hPa Calm   1 mph /  1.6 km/h 55 % 0 in /  0.0 mm
19:23 89.4 °F /  31.9 °C 60.4 °F /  15.8 °C 29.9 in /  1011.7 hPa SSW 7.1 mph /  11.4 km/h 7.1 mph /  11.4 km/h 38 % 0 in /  0.0 mm
19:28 89.4 °F /  31.9 °C 60.4 °F /  15.8 °C 29.9 in /  1011.7 hPa SW 5.8 mph /  9.3 km/h 5.8 mph /  9.3 km/h 38 % 0 in /  0.0 mm
19:30 79.7 °F /  26.5 °C 62.1 °F /  16.7 °C 29.9 in /  1013.8 hPa North 1 mph /  1.6 km/h 1 mph /  1.6 km/h 55 % 0 in /  0.0 mm
19:33 89.1 °F /  31.7 °C 60.1 °F /  15.6 °C 29.9 in /  1011.7 hPa WSW 6.9 mph /  11.1 km/h 6.9 mph /  11.1 km/h 38 % 0 in /  0.0 mm
19:38 88.5 °F /  31.4 °C 60.4 °F /  15.8 °C 29.9 in /  1011.7 hPa SW 7.6 mph /  12.2 km/h 7.6 mph /  12.2 km/h 39 % 0 in /  0.0 mm
19:40 79.5 °F /  26.4 °C 62.4 °F /  16.9 °C 29.9 in /  1013.8 hPa Calm   1 mph /  1.6 km/h 56 % 0 in /  0.0 mm
19:43 88.2 °F /  31.2 °C 60.1 °F /  15.6 °C 29.9 in /  1011.7 hPa South 4.6 mph /  7.4 km/h 4.6 mph /  7.4 km/h 39 % 0 in /  0.0 mm
19:48 87.8 °F /  31.0 °C 60.4 °F /  15.8 °C 29.9 in /  1011.7 hPa SSW 5.4 mph /  8.7 km/h 5.4 mph /  8.7 km/h 40 % 0 in /  0.0 mm
19:50 79.3 °F /  26.3 °C 62.8 °F /  17.1 °C 29.9 in /  1013.8 hPa NW 1 mph /  1.6 km/h 2 mph /  3.2 km/h 57 % 0 in /  0.0 mm
19:53 87.3 °F /  30.7 °C 60.6 °F /  15.9 °C 29.9 in /  1011.7 hPa SW 3.5 mph /  5.6 km/h 3.5 mph /  5.6 km/h 41 % 0 in /  0.0 mm
19:58 87.1 °F /  30.6 °C 60.4 °F /  15.8 °C 29.9 in /  1011.7 hPa SW 10.4 mph /  16.7 km/h 10.4 mph /  16.7 km/h 41 % 0 in /  0.0 mm
20:00 79.2 °F /  26.2 °C 62.6 °F /  17.0 °C 29.9 in /  1013.8 hPa NNE 1 mph /  1.6 km/h 2 mph /  3.2 km/h 57 % 0 in /  0.0 mm
20:03 86.7 °F /  30.4 °C 61 °F /  16.1 °C 29.8 in /  1010.7 hPa SW 8.1 mph /  13.0 km/h 8.1 mph /  13.0 km/h 42 % 0 in /  0.0 mm
20:08 86.4 °F /  30.2 °C 60.6 °F /  15.9 °C 29.8 in /  1010.7 hPa WSW 4.6 mph /  7.4 km/h 4.6 mph /  7.4 km/h 42 % 0 in /  0.0 mm
20:10 79 °F /  26.1 °C 63 °F /  17.2 °C 29.9 in /  1013.8 hPa Calm   2 mph /  3.2 km/h 58 % 0 in /  0.0 mm
20:13 86.2 °F /  30.1 °C 61.2 °F /  16.2 °C 29.8 in /  1010.7 hPa SW 3.5 mph /  5.6 km/h 3.5 mph /  5.6 km/h 43 % 0 in /  0.0 mm
20:14 86.2 °F /  30.1 °C 61.2 °F /  16.2 °C 29.8 in /  1010.7 hPa SW 3.5 mph /  5.6 km/h 3.5 mph /  5.6 km/h 43 % 0 in /  0.0 mm
20:19 86 °F /  30.0 °C 61 °F /  16.1 °C 29.9 in /  1011.7 hPa WSW 4.6 mph /  7.4 km/h 4.6 mph /  7.4 km/h 43 % 0 in /  0.0 mm
20:20 78.8 °F /  26.0 °C 63.3 °F /  17.4 °C 29.9 in /  1013.8 hPa NNE 1 mph /  1.6 km/h 2 mph /  3.2 km/h 59 % 0 in /  0.0 mm
20:24 85.6 °F /  29.8 °C 60.6 °F /  15.9 °C 29.9 in /  1011.7 hPa SSW 3.5 mph /  5.6 km/h 3.5 mph /  5.6 km/h 43 % 0 in /  0.0 mm
20:29 85.6 °F /  29.8 °C 61.2 °F /  16.2 °C 29.9 in /  1011.7 hPa South 3.5 mph /  5.6 km/h 3.5 mph /  5.6 km/h 44 % 0 in /  0.0 mm
20:30 78.6 °F /  25.9 °C 63.7 °F /  17.6 °C 29.9 in /  1013.8 hPa Calm     60 % 0 in /  0.0 mm
20:34 85.5 °F /  29.7 °C 61.2 °F /  16.2 °C 29.8 in /  1010.7 hPa SW 3.3 mph /  5.3 km/h 3.3 mph /  5.3 km/h 44 % 0 in /  0.0 mm
20:39 85.5 °F /  29.7 °C 61.2 °F /  16.2 °C 29.8 in /  1010.7 hPa WSW 3.5 mph /  5.6 km/h 3.5 mph /  5.6 km/h 44 % 0 in /  0.0 mm
20:40 78.1 °F /  25.6 °C 62.6 °F /  17.0 °C 29.9 in /  1013.8 hPa Calm     59 % 0 in /  0.0 mm
20:44 85.1 °F /  29.5 °C 61.3 °F /  16.3 °C 29.8 in /  1010.7 hPa South 4.6 mph /  7.4 km/h 4.6 mph /  7.4 km/h 45 % 0 in /  0.0 mm
20:49 84.9 °F /  29.4 °C 61.2 °F /  16.2 °C 29.9 in /  1011.7 hPa SW 3.5 mph /  5.6 km/h 3.5 mph /  5.6 km/h 45 % 0 in /  0.0 mm
20:50 78.1 °F /  25.6 °C 63.1 °F /  17.3 °C 29.9 in /  1013.8 hPa Calm   1 mph /  1.6 km/h 60 % 0 in /  0.0 mm
20:54 84.7 °F /  29.3 °C 61 °F /  16.1 °C 29.9 in /  1011.7 hPa SW 5.8 mph /  9.3 km/h 5.8 mph /  9.3 km/h 45 % 0 in /  0.0 mm
20:59 84.7 °F /  29.3 °C 61 °F /  16.1 °C 29.9 in /  1011.7 hPa SW 3.5 mph /  5.6 km/h 3.5 mph /  5.6 km/h 45 % 0 in /  0.0 mm
21:00 77.9 °F /  25.5 °C 63.3 °F /  17.4 °C 29.9 in /  1013.8 hPa Calm     61 % 0 in /  0.0 mm
21:04 84.6 °F /  29.2 °C 61 °F /  16.1 °C 29.9 in /  1011.7 hPa South 2.4 mph /  3.9 km/h 2.4 mph /  3.9 km/h 45 % 0 in /  0.0 mm
21:09 84.4 °F /  29.1 °C 61.3 °F /  16.3 °C 29.9 in /  1011.7 hPa SW 4.6 mph /  7.4 km/h 4.6 mph /  7.4 km/h 46 % 0 in /  0.0 mm
21:10 77.9 °F /  25.5 °C 63.9 °F /  17.7 °C 29.9 in /  1013.8 hPa Calm   1 mph /  1.6 km/h 62 % 0 in /  0.0 mm
21:14 84.2 °F /  29.0 °C 61.2 °F /  16.2 °C 29.9 in /  1011.7 hPa SW 3.5 mph /  5.6 km/h 3.5 mph /  5.6 km/h 46 % 0 in /  0.0 mm
21:19 84 °F /  28.9 °C 61.5 °F /  16.4 °C 29.9 in /  1012.8 hPa SW 2.6 mph /  4.2 km/h 2.6 mph /  4.2 km/h 47 % 0 in /  0.0 mm
21:20 77.7 °F /  25.4 °C 64 °F /  17.8 °C 29.9 in /  1013.8 hPa Calm     63 % 0 in /  0.0 mm
21:21 84 °F /  28.9 °C 61.5 °F /  16.4 °C 29.9 in /  1012.8 hPa WSW 2.6 mph /  4.2 km/h 2.6 mph /  4.2 km/h 47 % 0 in /  0.0 mm
21:26 83.8 °F /  28.8 °C 62.1 °F /  16.7 °C 29.9 in /  1012.8 hPa SSE 2.3 mph /  3.7 km/h 2.3 mph /  3.7 km/h 48 % 0 in /  0.0 mm
21:30 77.7 °F /  25.4 °C 64 °F /  17.8 °C 29.9 in /  1013.8 hPa Calm     63 % 0 in /  0.0 mm
21:31 83.7 °F /  28.7 °C 61.9 °F /  16.6 °C 29.9 in /  1013.8 hPa SSW 1.2 mph /  1.9 km/h   48 % 0 in /  0.0 mm
21:36 83.5 °F /  28.6 °C 61.7 °F /  16.5 °C 29.9 in /  1013.8 hPa SSE 2.3 mph /  3.7 km/h 2.3 mph /  3.7 km/h 48 % 0 in /  0.0 mm
21:40 77.5 °F /  25.3 °C 63.9 °F /  17.7 °C 29.9 in /  1013.8 hPa Calm     63 % 0 in /  0.0 mm
21:41 83.5 °F /  28.6 °C 61.7 °F /  16.5 °C 29.9 in /  1013.8 hPa Calm     48 % 0 in /  0.0 mm
21:46 83.3 °F /  28.5 °C 61.5 °F /  16.4 °C 29.9 in /  1013.8 hPa West 1.2 mph /  1.9 km/h 1.4 mph /  2.3 km/h 48 % 0 in /  0.0 mm
21:50 77.4 °F /  25.2 °C 64.2 °F /  17.9 °C 29.9 in /  1013.8 hPa Calm     64 % 0 in /  0.0 mm
21:51 83.1 °F /  28.4 °C 61.3 °F /  16.3 °C 29.9 in /  1013.8 hPa SSW 2.3 mph /  3.7 km/h 2.3 mph /  3.7 km/h 48 % 0 in /  0.0 mm
21:56 82.9 °F /  28.3 °C 61.9 °F /  16.6 °C 29.9 in /  1013.8 hPa SW 2.3 mph /  3.7 km/h 2.3 mph /  3.7 km/h 49 % 0 in /  0.0 mm
22:00 77 °F /  25.0 °C 63.9 °F /  17.7 °C 29.9 in /  1013.8 hPa Calm     64 % 0 in /  0.0 mm
22:01 82.8 °F /  28.2 °C 61.5 °F /  16.4 °C 29.9 in /  1013.8 hPa SW 3.6 mph /  5.8 km/h 3.6 mph /  5.8 km/h 49 % 0 in /  0.0 mm
22:06 82.4 °F /  28.0 °C 61.9 °F /  16.6 °C 29.9 in /  1013.8 hPa SW 3.5 mph /  5.6 km/h 3.5 mph /  5.6 km/h 50 % 0 in /  0.0 mm
22:10 76.8 °F /  24.9 °C 64.2 °F /  17.9 °C 29.9 in /  1013.8 hPa Calm     65 % 0 in /  0.0 mm
22:11 82.4 °F /  28.0 °C 61.9 °F /  16.6 °C 29.9 in /  1013.8 hPa WSW 2.3 mph /  3.7 km/h 2.3 mph /  3.7 km/h 50 % 0 in /  0.0 mm
22:16 82.2 °F /  27.9 °C 61.7 °F /  16.5 °C 29.9 in /  1013.8 hPa Calm     50 % 0 in /  0.0 mm
22:20 76.6 °F /  24.8 °C 64 °F /  17.8 °C 29.9 in /  1013.8 hPa WNW 1 mph /  1.6 km/h 1 mph /  1.6 km/h 65 % 0 in /  0.0 mm
22:21 82 °F /  27.8 °C 62.1 °F /  16.7 °C 29.9 in /  1013.8 hPa SSW 1.2 mph /  1.9 km/h   51 % 0 in /  0.0 mm
22:26 81.9 °F /  27.7 °C 62.1 °F /  16.7 °C 29.9 in /  1013.8 hPa WSW 1.2 mph /  1.9 km/h 1.2 mph /  1.9 km/h 51 % 0 in /  0.0 mm
22:30 76.5 °F /  24.7 °C 64.8 °F /  18.2 °C 29.9 in /  1013.8 hPa Calm   1 mph /  1.6 km/h 67 % 0 in /  0.0 mm
22:31 81.9 °F /  27.7 °C 62.1 °F /  16.7 °C 29.9 in /  1013.8 hPa WSW 2.3 mph /  3.7 km/h 2.3 mph /  3.7 km/h 51 % 0 in /  0.0 mm
22:36 81.7 °F /  27.6 °C 61.9 °F /  16.6 °C 29.9 in /  1013.8 hPa SW 1.2 mph /  1.9 km/h 1.2 mph /  1.9 km/h 51 % 0 in /  0.0 mm
22:40 75.9 °F /  24.4 °C 63.7 °F /  17.6 °C 29.9 in /  1013.8 hPa NW 1 mph /  1.6 km/h 2 mph /  3.2 km/h 66 % 0 in /  0.0 mm
22:41 81.5 °F /  27.5 °C 61.5 °F /  16.4 °C 29.9 in /  1013.8 hPa Calm     51 % 0 in /  0.0 mm
22:46 81.5 °F /  27.5 °C 62.2 °F /  16.8 °C 29.9 in /  1013.8 hPa Calm     52 % 0 in /  0.0 mm
22:50 75.7 °F /  24.3 °C 64 °F /  17.8 °C 29.9 in /  1013.8 hPa Calm   1 mph /  1.6 km/h 67 % 0 in /  0.0 mm
22:51 81.3 °F /  27.4 °C 62.1 °F /  16.7 °C 29.9 in /  1013.8 hPa Calm     52 % 0 in /  0.0 mm
22:56 81.1 °F /  27.3 °C 61.9 °F /  16.6 °C 29.9 in /  1013.8 hPa SE 1.4 mph /  2.3 km/h   52 % 0 in /  0.0 mm
23:00 75.4 °F /  24.1 °C 63.7 °F /  17.6 °C 29.9 in /  1013.8 hPa Calm   1 mph /  1.6 km/h 67 % 0 in /  0.0 mm
23:01 81.1 °F /  27.3 °C 61.9 °F /  16.6 °C 29.9 in /  1013.8 hPa SE 1.2 mph /  1.9 km/h   52 % 0 in /  0.0 mm
23:06 81.1 °F /  27.3 °C 61.9 °F /  16.6 °C 29.9 in /  1013.8 hPa ESE 2.3 mph /  3.7 km/h   52 % 0 in /  0.0 mm
23:10 75 °F /  23.9 °C 64.2 °F /  17.9 °C 29.9 in /  1013.8 hPa Calm   1 mph /  1.6 km/h 69 % 0 in /  0.0 mm
23:11 81.1 °F /  27.3 °C 61.9 °F /  16.6 °C 29.9 in /  1013.8 hPa ENE 2.3 mph /  3.7 km/h 2.3 mph /  3.7 km/h 52 % 0 in /  0.0 mm
23:16 81.1 °F /  27.3 °C 61.9 °F /  16.6 °C 29.9 in /  1013.8 hPa SW 1.2 mph /  1.9 km/h   52 % 0 in /  0.0 mm
23:20 75 °F /  23.9 °C 64.6 °F /  18.1 °C 29.9 in /  1013.8 hPa Calm     70 % 0 in /  0.0 mm
23:21 81 °F /  27.2 °C 61.7 °F /  16.5 °C 29.9 in /  1013.8 hPa WSW 1.2 mph /  1.9 km/h   52 % 0 in /  0.0 mm
23:26 80.8 °F /  27.1 °C 61.5 °F /  16.4 °C 29.9 in /  1013.8 hPa Calm     52 % 0 in /  0.0 mm
23:30 74.8 °F /  23.8 °C 64.4 °F /  18.0 °C 29.9 in /  1013.8 hPa Calm     70 % 0 in /  0.0 mm
23:31 80.8 °F /  27.1 °C 61.5 °F /  16.4 °C 29.9 in /  1013.8 hPa Calm     52 % 0 in /  0.0 mm
23:36 80.6 °F /  27.0 °C 61.3 °F /  16.3 °C 29.9 in /  1013.8 hPa WSW 1.2 mph /  1.9 km/h   52 % 0 in /  0.0 mm
23:40 74.8 °F /  23.8 °C 64.4 °F /  18.0 °C 29.9 in /  1013.8 hPa Calm     70 % 0 in /  0.0 mm
23:41 80.6 °F /  27.0 °C 61.3 °F /  16.3 °C 29.9 in /  1013.8 hPa Calm     52 % 0 in /  0.0 mm
23:46 80.6 °F /  27.0 °C 61.3 °F /  16.3 °C 29.9 in /  1013.8 hPa Calm     52 % 0 in /  0.0 mm
23:50 75 °F /  23.9 °C 64.9 °F /  18.3 °C 29.9 in /  1013.8 hPa Calm   2 mph /  3.2 km/h 71 % 0 in /  0.0 mm
23:51 80.4 °F /  26.9 °C 61.7 °F /  16.5 °C 29.9 in /  1013.8 hPa NE 1.2 mph /  1.9 km/h 1.4 mph /  2.3 km/h 53 % 0 in /  0.0 mm
23:56 80.2 °F /  26.8 °C 62.1 °F /  16.7 °C 29.9 in /  1013.8 hPa Calm     54 % 0 in /  0.0 mm
Meteo Sesrovires
Elogis d' Weather Underground - 3.75 mb

Guio original per  Jim McMurry - jmcmurry@mwt.net Adaptat per a la plantilla per  Wim van der Kuil - Leuven-Template.eu

Trobareu la nostra informacio del temps tambe a:

Weather Underground

AWEKAS